Tourville, Canada
Current Conditions -  °F | °C
As of 8:00 PM on Tuesday 21 Oct 2014 (Local Time) from CYQB Reporting Station
Broken Clouds Broken Clouds  
Wind Chill: 38°   Ceiling: 14000
Heat Index: 45°   Visibility: 15mi
Dew Point: 28°   Wind: 13mph
Humidity: 53%   Direction: 60°ENE
Pressure: 30.2"   Gusts: NA
Location:  47.1°N, 69.98°W
Report Text: CYQB 220000Z 06011KT 15SM FEW058 BKN140 07/M02 A3020 RMK SC2AC4 SLP228
Loading
Personal Weather Stations






























Interactive Weather Map
Tropical Storm Tracking
New forecast layout! Learn more

10-Day Weather Forecast

Advertisements
Track Severe Weather on mobile